createdAt,value
2022-12-20T00:02:32.114Z,10.41
2022-12-20T00:07:36.158Z,10.44
2022-12-20T00:12:40.311Z,10.51
2022-12-20T00:17:44.528Z,10.59
2022-12-20T00:22:48.609Z,10.69
2022-12-20T00:27:52.811Z,10.76
2022-12-20T00:32:56.986Z,10.73
2022-12-20T00:38:01.135Z,10.81
2022-12-20T00:43:05.279Z,10.82
2022-12-20T00:48:09.469Z,10.72
2022-12-20T00:53:13.581Z,10.63
2022-12-20T00:58:17.779Z,10.75
2022-12-20T01:03:22.079Z,10.67
2022-12-20T01:08:26.086Z,10.72
2022-12-20T01:13:30.278Z,10.67
2022-12-20T01:18:34.411Z,10.64
2022-12-20T01:23:38.571Z,10.65
2022-12-20T01:28:42.743Z,10.69
2022-12-20T01:33:46.873Z,10.66
2022-12-20T01:38:51.068Z,10.76
2022-12-20T01:43:55.201Z,10.72
2022-12-20T01:48:59.379Z,10.67
2022-12-20T01:54:03.588Z,10.73
2022-12-20T01:59:07.687Z,10.69
2022-12-20T02:04:11.849Z,10.69
2022-12-20T02:09:16.050Z,10.68
2022-12-20T02:14:20.269Z,10.64
2022-12-20T02:19:24.373Z,10.52
2022-12-20T02:24:28.484Z,10.41
2022-12-20T02:29:32.977Z,10.45
2022-12-20T02:34:36.844Z,10.39
2022-12-20T02:39:40.991Z,10.34
2022-12-20T02:44:45.151Z,10.34
2022-12-20T02:49:49.311Z,10.24
2022-12-20T02:54:53.443Z,10.28
2022-12-20T02:59:57.655Z,10.22
2022-12-20T03:05:01.769Z,10.20
2022-12-20T03:10:05.961Z,10.17
2022-12-20T03:15:10.088Z,10.17
2022-12-20T03:20:14.296Z,10.17
2022-12-20T03:25:18.546Z,10.15
2022-12-20T03:30:20.669Z,10.12
2022-12-20T03:35:24.871Z,10.10
2022-12-20T03:40:29.045Z,10.07
2022-12-20T03:45:33.249Z,10.06
2022-12-20T03:50:37.387Z,10.01
2022-12-20T03:55:45.128Z,9.94
2022-12-20T04:00:45.660Z,9.92
2022-12-20T04:05:49.831Z,9.91
2022-12-20T04:10:53.995Z,9.88
2022-12-20T04:16:00.750Z,9.84
2022-12-20T04:21:02.329Z,9.85
2022-12-20T04:26:06.477Z,9.92
2022-12-20T04:31:10.704Z,9.88
2022-12-20T04:36:14.763Z,9.83
2022-12-20T04:41:18.973Z,9.74
2022-12-20T04:46:23.185Z,9.74
2022-12-20T04:51:27.273Z,9.74
2022-12-20T04:56:31.436Z,9.72
2022-12-20T05:01:35.759Z,9.70
2022-12-20T05:06:39.798Z,9.62
2022-12-20T05:11:43.916Z,9.52
2022-12-20T05:16:48.078Z,9.49
2022-12-20T05:21:52.261Z,9.45
2022-12-20T05:26:56.391Z,9.43
2022-12-20T05:32:00.585Z,9.49
2022-12-20T05:37:04.715Z,9.49
2022-12-20T05:42:08.912Z,9.42
2022-12-20T05:47:13.130Z,9.41
2022-12-20T05:52:17.202Z,9.44
2022-12-20T05:57:21.411Z,9.51
2022-12-20T06:02:25.673Z,9.48
2022-12-20T06:07:29.748Z,9.47
2022-12-20T06:12:33.853Z,9.54
2022-12-20T06:17:38.050Z,9.59
2022-12-20T06:22:42.222Z,9.64
2022-12-20T06:27:46.376Z,9.66
2022-12-20T06:32:50.514Z,9.68
2022-12-20T06:37:54.697Z,9.68
2022-12-20T06:42:58.857Z,9.74
2022-12-20T06:48:02.999Z,9.80
2022-12-20T06:53:07.169Z,9.83
2022-12-20T06:58:11.440Z,9.85
2022-12-20T07:03:15.549Z,9.87
2022-12-20T07:08:19.631Z,9.87
2022-12-20T07:18:27.999Z,10.00
2022-12-20T07:23:32.149Z,9.99
2022-12-20T07:28:36.301Z,10.00
2022-12-20T07:33:40.439Z,9.94
2022-12-20T07:38:44.613Z,9.94
2022-12-20T07:43:48.803Z,9.95
2022-12-20T07:48:52.956Z,9.98
2022-12-20T07:53:57.125Z,10.01
2022-12-20T07:59:01.273Z,10.10
2022-12-20T08:04:05.573Z,10.15
2022-12-20T08:09:09.601Z,10.11
2022-12-20T08:14:13.724Z,10.08
2022-12-20T08:19:17.905Z,10.16
2022-12-20T08:24:22.106Z,10.15
2022-12-20T08:29:26.244Z,10.12
2022-12-20T08:34:30.403Z,10.06
2022-12-20T08:39:34.590Z,10.09
2022-12-20T08:44:38.743Z,10.18
2022-12-20T08:49:47.637Z,10.20
2022-12-20T08:54:47.077Z,10.27
2022-12-20T08:59:49.312Z,10.33
2022-12-20T09:04:53.495Z,10.43
2022-12-20T09:09:57.674Z,10.51
2022-12-20T09:15:01.795Z,10.72
2022-12-20T09:20:05.940Z,10.76
2022-12-20T09:25:10.102Z,10.73
2022-12-20T09:30:12.398Z,10.74
2022-12-20T09:35:23.039Z,10.73
2022-12-20T09:40:20.675Z,10.69
2022-12-20T09:45:24.849Z,10.76
2022-12-20T09:50:29.037Z,10.78
2022-12-20T09:55:33.177Z,10.83
2022-12-20T10:00:37.364Z,10.85
2022-12-20T10:05:42.214Z,10.91
2022-12-20T10:10:45.646Z,10.91
2022-12-20T10:15:49.930Z,11.01
2022-12-20T10:20:53.997Z,11.15
2022-12-20T10:25:58.147Z,11.20
2022-12-20T10:31:02.370Z,11.19
2022-12-20T10:36:06.467Z,11.20
2022-12-20T10:41:21.500Z,11.20
2022-12-20T10:46:14.822Z,11.16
2022-12-20T10:51:18.940Z,11.19
2022-12-20T10:56:23.111Z,11.30
2022-12-20T11:01:27.383Z,11.40
2022-12-20T11:06:31.437Z,11.44
2022-12-20T11:11:35.638Z,11.54
2022-12-20T11:16:39.955Z,11.60
2022-12-20T11:21:43.903Z,11.75
2022-12-20T11:26:48.077Z,11.80
2022-12-20T11:31:52.367Z,11.79
2022-12-20T11:36:56.418Z,11.82
2022-12-20T11:42:00.587Z,11.75
2022-12-20T11:47:04.841Z,11.75
2022-12-20T11:52:08.887Z,11.75
2022-12-20T11:57:13.031Z,11.71
2022-12-20T12:02:17.268Z,11.67
2022-12-20T12:07:21.374Z,11.63
2022-12-20T12:12:25.531Z,11.67
2022-12-20T12:17:29.671Z,11.65
2022-12-20T12:22:33.855Z,11.69
2022-12-20T12:27:38.020Z,11.68
2022-12-20T12:32:44.356Z,11.64
2022-12-20T12:37:46.385Z,11.58
2022-12-20T12:42:50.476Z,11.60
2022-12-20T12:47:54.646Z,11.71
2022-12-20T12:52:58.838Z,11.73
2022-12-20T12:58:03.005Z,11.68
2022-12-20T13:03:07.262Z,11.63
2022-12-20T13:08:11.278Z,11.60
2022-12-20T13:13:15.472Z,11.59
2022-12-20T13:23:23.795Z,11.45
2022-12-20T13:28:27.940Z,11.35
2022-12-20T13:33:32.073Z,11.25
2022-12-20T13:38:36.250Z,11.06
2022-12-20T13:43:40.448Z,10.88
2022-12-20T13:48:44.585Z,10.79
2022-12-20T13:53:48.822Z,10.78
2022-12-20T13:58:52.939Z,10.72
2022-12-20T14:03:57.220Z,10.74
2022-12-20T14:09:01.249Z,10.74
2022-12-20T14:14:05.379Z,10.74
2022-12-20T14:19:09.522Z,10.81
2022-12-20T14:24:13.705Z,10.83
2022-12-20T14:29:17.847Z,10.76
2022-12-20T14:34:25.966Z,10.69
2022-12-20T14:39:26.236Z,10.64
2022-12-20T14:44:30.367Z,10.57
2022-12-20T14:49:34.532Z,10.47
2022-12-20T14:55:07.127Z,10.39
2022-12-20T14:59:40.938Z,10.33
2022-12-20T15:04:43.204Z,10.27
2022-12-20T15:09:47.388Z,10.27
2022-12-20T15:14:51.541Z,10.24
2022-12-20T15:19:55.711Z,10.21
2022-12-20T15:30:04.037Z,10.16
2022-12-20T15:35:08.142Z,10.13
2022-12-20T15:40:12.323Z,10.09
2022-12-20T15:45:16.473Z,10.04
2022-12-20T15:50:20.672Z,10.02
2022-12-20T15:55:24.832Z,10.02
2022-12-20T16:00:29.008Z,10.00
2022-12-20T16:05:33.114Z,9.97
2022-12-20T16:15:41.469Z,9.93
2022-12-20T16:20:45.620Z,10.00
2022-12-20T16:25:49.820Z,9.99
2022-12-20T16:30:53.988Z,10.07
2022-12-20T16:35:58.126Z,10.05
2022-12-20T16:41:02.270Z,10.09
2022-12-20T16:46:06.476Z,10.11
2022-12-20T16:51:10.589Z,10.07
2022-12-20T16:56:14.778Z,10.07
2022-12-20T17:01:19.029Z,10.06
2022-12-20T17:06:23.073Z,10.07
2022-12-20T17:11:27.610Z,10.13
2022-12-20T17:16:31.489Z,10.16
2022-12-20T17:26:39.718Z,10.08
2022-12-20T17:31:43.906Z,10.02
2022-12-20T17:36:48.036Z,10.00
2022-12-20T17:41:52.213Z,10.08
2022-12-20T17:46:56.342Z,10.14
2022-12-20T17:52:00.524Z,10.15
2022-12-20T17:57:04.681Z,10.18
2022-12-20T18:02:09.115Z,10.23
2022-12-20T18:07:13.007Z,10.30
2022-12-20T18:12:17.215Z,10.29
2022-12-20T18:17:21.315Z,10.35
2022-12-20T18:22:25.512Z,10.34
2022-12-20T18:27:30.977Z,10.33
2022-12-20T18:32:33.826Z,10.27
2022-12-20T18:37:37.997Z,10.25
2022-12-20T18:42:42.120Z,10.21
2022-12-20T18:47:46.332Z,10.18
2022-12-20T18:52:50.464Z,10.18
2022-12-20T18:57:54.635Z,10.15
2022-12-20T19:02:58.977Z,10.13
2022-12-20T19:08:02.941Z,10.13
2022-12-20T19:13:07.122Z,10.10
2022-12-20T19:18:11.297Z,10.16
2022-12-20T19:23:15.444Z,10.18
2022-12-20T19:28:19.618Z,10.21
2022-12-20T19:33:23.748Z,10.20
2022-12-20T19:38:27.906Z,10.19
2022-12-20T19:43:32.077Z,10.17
2022-12-20T19:48:36.260Z,10.15
2022-12-20T19:53:40.416Z,10.17
2022-12-20T19:58:44.564Z,10.18
2022-12-20T20:03:48.803Z,10.17
2022-12-20T20:08:52.911Z,10.18
2022-12-20T20:13:57.056Z,10.10
2022-12-20T20:19:01.240Z,10.10
2022-12-20T20:24:05.353Z,10.09
2022-12-20T20:29:09.516Z,10.06
2022-12-20T20:34:11.798Z,10.06
2022-12-20T20:39:15.958Z,10.08
2022-12-20T20:44:20.127Z,10.08
2022-12-20T20:49:24.347Z,10.13
2022-12-20T20:54:28.432Z,10.15
2022-12-20T21:04:36.741Z,10.25
2022-12-20T21:19:49.300Z,10.27
2022-12-20T21:24:53.390Z,10.27
2022-12-20T21:29:57.551Z,10.27
2022-12-20T21:35:01.734Z,10.26
2022-12-20T21:40:05.876Z,10.26
2022-12-20T21:45:10.021Z,10.22
2022-12-20T21:50:14.265Z,10.25
2022-12-20T21:55:18.357Z,10.22
2022-12-20T22:00:22.597Z,10.18
2022-12-20T22:05:26.709Z,10.17
2022-12-20T22:10:31.142Z,10.13
2022-12-20T22:15:35.014Z,10.14
2022-12-20T22:20:39.209Z,10.12
2022-12-20T22:25:43.332Z,10.12
2022-12-20T22:30:47.514Z,10.11
2022-12-20T22:35:51.664Z,10.09
2022-12-20T22:40:55.816Z,10.05
2022-12-20T22:46:00.135Z,10.07
2022-12-20T22:51:04.163Z,10.05
2022-12-20T22:56:08.368Z,10.03
2022-12-20T23:01:12.553Z,10.04
2022-12-20T23:06:16.645Z,10.00
2022-12-20T23:11:20.817Z,9.98
2022-12-20T23:16:25.017Z,9.96
2022-12-20T23:21:29.091Z,9.93
2022-12-20T23:26:33.289Z,9.94
2022-12-20T23:31:37.455Z,9.93
2022-12-20T23:36:41.613Z,9.94
2022-12-20T23:41:45.784Z,9.91
2022-12-20T23:46:49.927Z,9.93
2022-12-20T23:51:54.093Z,9.90
2022-12-20T23:56:58.241Z,9.89
